TimeEDT,TemperatureF,Dew PointF,Humidity,Sea Level PressureIn,VisibilityMPH,Wind Direction,Wind SpeedMPH,Gust SpeedMPH,PrecipitationIn,Events,Conditions,WindDirDegrees,DateUTC
12:53 AM,66.0,61.0,84,29.94,10.0,WNW,4.6,-,N/A,,Clear,290,2013-08-04 04:53:00
1:53 AM,64.9,61.0,87,29.93,10.0,WNW,4.6,-,N/A,,Clear,300,2013-08-04 05:53:00
2:53 AM,63.0,59.0,87,29.93,8.0,West,4.6,-,N/A,,Clear,280,2013-08-04 06:53:00
3:53 AM,61.0,57.9,90,29.94,8.0,WNW,3.5,-,N/A,,Clear,290,2013-08-04 07:53:00
4:53 AM,57.9,55.0,90,29.94,8.0,Calm,Calm,-,N/A,,Clear,0,2013-08-04 08:53:00
5:53 AM,57.9,54.0,87,29.96,10.0,West,3.5,-,N/A,,Clear,280,2013-08-04 09:53:00
6:53 AM,59.0,54.0,83,29.96,10.0,WNW,4.6,-,N/A,,Clear,290,2013-08-04 10:53:00
7:53 AM,64.0,55.0,73,29.97,10.0,WNW,6.9,-,N/A,,Clear,300,2013-08-04 11:53:00
8:53 AM,68.0,55.9,65,29.97,10.0,WNW,9.2,-,N/A,,Clear,300,2013-08-04 12:53:00
9:53 AM,71.1,55.0,57,29.98,10.0,NW,9.2,-,N/A,,Clear,310,2013-08-04 13:53:00
10:53 AM,73.9,55.9,53,29.98,10.0,NNW,11.5,-,N/A,,Partly Cloudy,340,2013-08-04 14:53:00
11:53 AM,73.9,55.0,52,29.98,10.0,WNW,11.5,-,N/A,,Mostly Cloudy,300,2013-08-04 15:53:00
12:53 PM,75.0,53.1,46,29.98,10.0,NNW,9.2,-,N/A,,Scattered Clouds,330,2013-08-04 16:53:00
1:53 PM,77.0,52.0,42,29.98,10.0,NNW,12.7,20.7,N/A,,Scattered Clouds,340,2013-08-04 17:53:00
2:53 PM,75.0,51.1,43,29.98,10.0,NNW,11.5,19.6,N/A,,Mostly Cloudy,330,2013-08-04 18:53:00
3:53 PM,77.0,48.9,37,29.98,10.0,NNW,12.7,19.6,N/A,,Partly Cloudy,340,2013-08-04 19:53:00
4:53 PM,75.9,50.0,40,29.98,10.0,NW,6.9,-,N/A,,Partly Cloudy,310,2013-08-04 20:53:00
5:53 PM,75.9,48.9,38,29.97,10.0,NW,10.4,-,N/A,,Partly Cloudy,320,2013-08-04 21:53:00
6:53 PM,75.0,48.9,40,29.97,10.0,NW,5.8,-,N/A,,Clear,310,2013-08-04 22:53:00
7:53 PM,71.1,51.1,49,29.99,10.0,WNW,4.6,-,N/A,,Clear,290,2013-08-04 23:53:00
8:53 PM,62.1,55.0,78,30.00,10.0,West,3.5,-,N/A,,Clear,280,2013-08-05 00:53:00
9:53 PM,61.0,54.0,78,30.02,10.0,West,3.5,-,N/A,,Clear,280,2013-08-05 01:53:00
10:53 PM,59.0,54.0,83,30.03,10.0,West,3.5,-,N/A,,Clear,270,2013-08-05 02:53:00
11:53 PM,59.0,53.1,81,30.04,10.0,WNW,3.5,-,N/A,,Clear,290,2013-08-05 03:53:00